Share

Asahikawa Air Base, Japan

Asahikawa (RJEC) Elev 682 ft | 43.67 °N, 142.45 °E | Change Station

Current weather conditions updated 1 hour ago

Clear
Clear
41 °F
Feels Like 37 °F
N
6
Wind Variable Wind from NNW
Sunrise 4:40 AM
Sunset 6:19 PM
Moon Waning Gibbous

Tomorrow is forecast to be Warmer than today.

Pressure 30.06 in
Visibility -9999.0 miles
Clouds
Windchill 37 °F
Dew Point 28 °F
Humidity 61%
Rainfall 0.00 in
Snow Depth Not available.
UV Not available.
Pollen Not available.
Air Quality Not available.
Flu Activity Not available.
METAR RJEC 201100Z 33005KT CAVOK 05/M02 Q1018

More Conditions Fewer Conditions

Pressure 30.06 in
Visibility -9999.0 miles
Clouds
Windchill 37 °F
Dew Point 28 °F
Humidity 61%
Rainfall 0.00 in
Snow Depth Not available.
UV Not available.
Pollen Not available.
Air Quality Not available.
Flu Activity Not available.
METAR RJEC 201100Z 33005KT CAVOK 05/M02 Q1018

More Conditions Fewer Conditions

10-Day Weather Forecast

Almanac

Astronomy

Apr. 20, 2014 Rise Set
Actual Time 4:40 AM JST 6:19 PM JST
Civil Twilight 4:10 AM JST 6:49 PM JST
Nautical Twilight 3:33 AM JST 7:26 PM JST
Astronomical Twilight 2:53 AM JST 8:06 PM JST
Moon 11:22 PM JST 8:15 AM JST
Length of Visible Light 14h 39m
Length of Day
13h 39m
Tomorrow will be 2m 48s longer.
Waning Gibbous, 70% of the Moon is Illuminated
Today
Waning Gibbous
Apr 22
Last Quarter
Apr 29
New
May 6
First Quarter
May 14
Full

Yesterday's Extremes

Country Highs Country Lows

Community

  • EARLY FOGGY MORNING
    EARLY FOGGY MORNING
  • Easter Greetings
    Easter Greetings
  • Sunny day at the coast-Cape Arago Lighthouse
    Sunny day at the coast-Cape Arago Lighthouse
  • Cherry Blossoms
    Cherry Blossoms
  • White-Crowned Sparrow
    White-Crowned Sparrow

WunderPhotos

Upload Photos

1,703,182 photos uploaded!

Nearby

Snow Depth

Not available.

Coastal Water Temperatures

Place Temperature
No Stations Reporting

Earthquake Activity

City Distance Mag. Time & Date
No recent earthquake activity has been reported nearby.
Minimum magnitude displayed is 2.5.

Nearby Weather Stations

There are no personal weather stations in this area.

What do you think?

We're not finished. Please let us know what you like, what you don't like, and what you are still missing.